Map

Track Data

SID SEASON NUMBER BASIN SUBBASIN NAME ISO_TIME NATURE LAT LON WMO_WIND WMO_PRES WMO_AGENCY TRACK_TYPE DIST2LAND LANDFALL IFLAG USA_AGENCY USA_ATCF_ID USA_LAT USA_LON USA_RECORD USA_STATUS USA_WIND USA_PRES USA_SSHS USA_R34_NE USA_R34_SE USA_R34_SW USA_R34_NW USA_R50_NE USA_R50_SE USA_R50_SW USA_R50_NW USA_R64_NE USA_R64_SE USA_R64_SW USA_R64_NW USA_POCI USA_ROCI USA_RMW USA_EYE TOKYO_LAT TOKYO_LON TOKYO_GRADE TOKYO_WIND TOKYO_PRES TOKYO_R50_DIR TOKYO_R50_LONG TOKYO_R50_SHORT TOKYO_R30_DIR TOKYO_R30_LONG TOKYO_R30_SHORT TOKYO_LAND CMA_LAT CMA_LON CMA_CAT CMA_WIND CMA_PRES HKO_LAT HKO_LON HKO_CAT HKO_WIND HKO_PRES NEWDELHI_LAT NEWDELHI_LON NEWDELHI_GRADE NEWDELHI_WIND NEWDELHI_PRES NEWDELHI_CI NEWDELHI_DP NEWDELHI_POCI REUNION_LAT REUNION_LON REUNION_TYPE REUNION_WIND REUNION_PRES REUNION_TNUM REUNION_CI REUNION_RMW REUNION_R34_NE REUNION_R34_SE REUNION_R34_SW REUNION_R34_NW REUNION_R50_NE REUNION_R50_SE REUNION_R50_SW REUNION_R50_NW REUNION_R64_NE REUNION_R64_SE REUNION_R64_SW REUNION_R64_NW BOM_LAT BOM_LON BOM_TYPE BOM_WIND BOM_PRES BOM_TNUM BOM_CI BOM_RMW BOM_R34_NE BOM_R34_SE BOM_R34_SW BOM_R34_NW BOM_R50_NE BOM_R50_SE BOM_R50_SW BOM_R50_NW BOM_R64_NE BOM_R64_SE BOM_R64_SW BOM_R64_NW BOM_ROCI BOM_POCI BOM_EYE BOM_POS_METHOD BOM_PRES_METHOD NADI_LAT NADI_LON NADI_CAT NADI_WIND NADI_PRES WELLINGTON_LAT WELLINGTON_LON WELLINGTON_WIND WELLINGTON_PRES DS824_LAT DS824_LON DS824_STAGE DS824_WIND DS824_PRES TD9636_LAT TD9636_LON TD9636_STAGE TD9636_WIND TD9636_PRES TD9635_LAT TD9635_LON TD9635_WIND TD9635_PRES TD9635_ROCI NEUMANN_LAT NEUMANN_LON NEUMANN_CLASS NEUMANN_WIND NEUMANN_PRES MLC_LAT MLC_LON MLC_CLASS MLC_WIND MLC_PRES USA_GUST BOM_GUST BOM_GUST_PER REUNION_GUST REUNION_GUST_PER USA_SEAHGT USA_SEARAD_NE USA_SEARAD_SE USA_SEARAD_SW USA_SEARAD_NW STORM_SPEED STORM_DIR
1860237N28283 1860 24 NA NA NOT_NAMED 1860-08-24 00:00:00 TS 28.2000 -77.1000 60 hurdat_atl main 324 324 O_____________ hurdat_atl AL021860 28.2000 -77.1000 TS 60 0 11 27
1860237N28283 1860 24 NA NA NOT_NAMED 1860-08-24 03:00:00 TS 28.7076 -76.8007 main 361 361 P_____________ AL021860 28.7076 -76.8007 TS 60 0 11 28
1860237N28283 1860 24 NA NA NOT_NAMED 1860-08-24 06:00:00 TS 29.2000 -76.5000 60 hurdat_atl main 396 396 O_____________ hurdat_atl AL021860 29.2000 -76.5000 TS 60 0 11 28
1860237N28283 1860 24 NA NA NOT_NAMED 1860-08-24 09:00:00 TS 29.6774 -76.1995 main 438 438 P_____________ AL021860 29.6774 -76.1995 TS 65 1 11 28
1860237N28283 1860 24 NA NA NOT_NAMED 1860-08-24 12:00:00 TS 30.2000 -75.9000 70 hurdat_atl main 454 412 O_____________ hurdat_atl AL021860 30.2000 -75.9000 HU 70 1 12 24
1860237N28283 1860 24 NA NA NOT_NAMED 1860-08-24 15:00:00 TS 30.8123 -75.6143 main 412 367 P_____________ AL021860 30.8123 -75.6143 HU 70 1 14 22
1860237N28283 1860 24 NA NA NOT_NAMED 1860-08-24 18:00:00 TS 31.5000 -75.3000 70 hurdat_atl main 367 311 O_____________ hurdat_atl AL021860 31.5000 -75.3000 HU 70 1 15 22
1860237N28283 1860 24 NA NA NOT_NAMED 1860-08-24 21:00:00 TS 32.2424 -74.9296 main 315 264 P_____________ AL021860 32.2424 -74.9296 HU 75 1 17 24
1860237N28283 1860 24 NA NA NOT_NAMED 1860-08-25 00:00:00 TS 33.0000 -74.5000 80 hurdat_atl main 264 241 O_____________ hurdat_atl AL021860 33.0000 -74.5000 HU 80 1 16 27
1860237N28283 1860 24 NA NA NOT_NAMED 1860-08-25 03:00:00 TS 33.7071 -74.0437 main 249 239 P_____________ AL021860 33.7071 -74.0437 HU 80 1 16 31
1860237N28283 1860 24 NA NA NOT_NAMED 1860-08-25 06:00:00 TS 34.4000 -73.5000 80 hurdat_atl main 239 232 O_____________ hurdat_atl AL021860 34.4000 -73.5000 HU 80 1 17 36
1860237N28283 1860 24 NA NA NOT_NAMED 1860-08-25 09:00:00 TS 35.1004 -72.8076 main 256 256 P_____________ AL021860 35.1004 -72.8076 HU 85 2 18 39
1860237N28283 1860 24 NA NA NOT_NAMED 1860-08-25 12:00:00 TS 35.8000 -72.1000 90 hurdat_atl main 305 305 O_____________ hurdat_atl AL021860 35.8000 -72.1000 HU 90 2 18 36
1860237N28283 1860 24 NA NA NOT_NAMED 1860-08-25 15:00:00 TS 36.5069 -71.5261 main 366 366 P_____________ AL021860 36.5069 -71.5261 HU 90 2 17 32
1860237N28283 1860 24 NA NA NOT_NAMED 1860-08-25 18:00:00 TS 37.2000 -71.0000 90 hurdat_atl main 379 376 O_____________ hurdat_atl AL021860 37.2000 -71.0000 HU 90 2 16 33
1860237N28283 1860 24 NA NA NOT_NAMED 1860-08-25 21:00:00 TS 37.8573 -70.4416 main 373 340 P_____________ AL021860 37.8573 -70.4416 HU 85 2 16 34
1860237N28283 1860 24 NA NA NOT_NAMED 1860-08-26 00:00:00 TS 38.5000 -69.9000 80 hurdat_atl main 340 288 O_____________ hurdat_atl AL021860 38.5000 -69.9000 HU 80 1 15 32
1860237N28283 1860 24 NA NA NOT_NAMED 1860-08-26 03:00:00 TS 39.1573 -69.3842 main 278 230 P_____________ AL021860 39.1573 -69.3842 HU 80 1 15 31
1860237N28283 1860 24 NA NA NOT_NAMED 1860-08-26 06:00:00 TS 39.8000 -68.9000 80 hurdat_atl main 230 191 O_____________ hurdat_atl AL021860 39.8000 -68.9000 HU 80 1 15 30
1860237N28283 1860 24 NA NA NOT_NAMED 1860-08-26 09:00:00 TS 40.4222 -68.4417 main 196 180 P_____________ AL021860 40.4222 -68.4417 HU 75 1 14 30
1860237N28283 1860 24 NA NA NOT_NAMED 1860-08-26 12:00:00 TS 41.0000 -68.0000 70 hurdat_atl main 183 179 O_____________ hurdat_atl AL021860 41.0000 -68.0000 HU 70 1 13 31
1860237N28283 1860 24 NA NA NOT_NAMED 1860-08-26 15:00:00 TS 41.5179 -67.5538 main 200 200 P_____________ AL021860 41.5179 -67.5538 HU 70 1 12 34
1860237N28283 1860 24 NA NA NOT_NAMED 1860-08-26 18:00:00 TS 42.0000 -67.1000 70 hurdat_atl main 201 O_____________ hurdat_atl AL021860 42.0000 -67.1000 HU 70 1 12 35

About IBTrACS Database

This database is a web-friendly format of International Best Track Archive for Climate Stewardship (IBTrACS), a global best track data archive curated by NOAA dating back to 1842.

Updated: 2021-12-03